sensor_id;sensor_type;location;lat;lon;timestamp;P1;durP1;ratioP1;P2;durP2;ratioP2
4078;SDS011;2054;47.858;11.156;2023-07-28T02:46:27;2.70;;;2.35;;
4078;SDS011;2054;47.858;11.156;2023-07-28T02:48:54;3.30;;;2.55;;
4078;SDS011;2054;47.858;11.156;2023-07-28T02:51:21;2.63;;;2.42;;
4078;SDS011;2054;47.858;11.156;2023-07-28T02:53:48;3.22;;;2.63;;
4078;SDS011;2054;47.858;11.156;2023-07-28T02:56:16;3.13;;;2.45;;
4078;SDS011;2054;47.858;11.156;2023-07-28T02:58:43;2.38;;;2.17;;
4078;SDS011;2054;47.858;11.156;2023-07-28T03:01:10;3.40;;;2.28;;
4078;SDS011;2054;47.858;11.156;2023-07-28T03:03:39;4.68;;;2.38;;
4078;SDS011;2054;47.858;11.156;2023-07-28T03:06:06;3.70;;;2.42;;
4078;SDS011;2054;47.858;11.156;2023-07-28T03:08:33;4.90;;;2.55;;
4078;SDS011;2054;47.858;11.156;2023-07-28T03:11:01;3.40;;;2.30;;
4078;SDS011;2054;47.858;11.156;2023-07-28T03:13:28;6.25;;;3.05;;
4078;SDS011;2054;47.858;11.156;2023-07-28T03:15:55;3.28;;;2.25;;
4078;SDS011;2054;47.858;11.156;2023-07-28T03:18:22;5.03;;;2.22;;
4078;SDS011;2054;47.858;11.156;2023-07-28T03:20:51;5.38;;;2.50;;
4078;SDS011;2054;47.858;11.156;2023-07-28T03:23:18;5.30;;;2.40;;
4078;SDS011;2054;47.858;11.156;2023-07-28T03:25:45;3.25;;;2.78;;
4078;SDS011;2054;47.858;11.156;2023-07-28T03:28:12;2.88;;;2.50;;
4078;SDS011;2054;47.858;11.156;2023-07-28T03:30:40;4.63;;;2.90;;
4078;SDS011;2054;47.858;11.156;2023-07-28T03:33:07;3.53;;;2.15;;
4078;SDS011;2054;47.858;11.156;2023-07-28T03:35:34;3.45;;;2.53;;
4078;SDS011;2054;47.858;11.156;2023-07-28T03:38:03;4.60;;;2.58;;
4078;SDS011;2054;47.858;11.156;2023-07-28T03:40:30;4.10;;;2.70;;
4078;SDS011;2054;47.858;11.156;2023-07-28T03:42:57;3.88;;;2.70;;
4078;SDS011;2054;47.858;11.156;2023-07-28T03:45:25;4.32;;;2.70;;
4078;SDS011;2054;47.858;11.156;2023-07-28T03:47:52;6.90;;;2.88;;
4078;SDS011;2054;47.858;11.156;2023-07-28T03:50:19;5.72;;;2.88;;
4078;SDS011;2054;47.858;11.156;2023-07-28T03:52:48;3.00;;;2.70;;
4078;SDS011;2054;47.858;11.156;2023-07-28T03:55:16;4.68;;;2.85;;
4078;SDS011;2054;47.858;11.156;2023-07-28T03:57:43;5.28;;;2.80;;
4078;SDS011;2054;47.858;11.156;2023-07-28T04:00:11;3.97;;;2.90;;
4078;SDS011;2054;47.858;11.156;2023-07-28T04:02:39;3.47;;;2.70;;
4078;SDS011;2054;47.858;11.156;2023-07-28T04:05:06;3.60;;;3.13;;
4078;SDS011;2054;47.858;11.156;2023-07-28T04:07:33;3.55;;;2.72;;
4078;SDS011;2054;47.858;11.156;2023-07-28T04:10:01;6.57;;;3.28;;
4078;SDS011;2054;47.858;11.156;2023-07-28T04:12:29;4.43;;;2.83;;
4078;SDS011;2054;47.858;11.156;2023-07-28T04:14:56;5.82;;;3.25;;
4078;SDS011;2054;47.858;11.156;2023-07-28T04:17:24;7.88;;;3.25;;
4078;SDS011;2054;47.858;11.156;2023-07-28T04:19:51;4.30;;;2.88;;
4078;SDS011;2054;47.858;11.156;2023-07-28T04:22:18;5.40;;;3.10;;
4078;SDS011;2054;47.858;11.156;2023-07-28T04:24:46;3.72;;;2.92;;
4078;SDS011;2054;47.858;11.156;2023-07-28T04:27:13;6.05;;;2.80;;
4078;SDS011;2054;47.858;11.156;2023-07-28T04:29:42;3.63;;;2.60;;
4078;SDS011;2054;47.858;11.156;2023-07-28T04:32:09;3.17;;;2.88;;
4078;SDS011;2054;47.858;11.156;2023-07-28T04:34:37;3.42;;;2.50;;
4078;SDS011;2054;47.858;11.156;2023-07-28T04:37:04;3.80;;;2.60;;
4078;SDS011;2054;47.858;11.156;2023-07-28T04:39:32;4.95;;;2.80;;
4078;SDS011;2054;47.858;11.156;2023-07-28T04:41:59;5.50;;;3.10;;
4078;SDS011;2054;47.858;11.156;2023-07-28T04:44:26;5.68;;;2.97;;
4078;SDS011;2054;47.858;11.156;2023-07-28T04:46:54;3.58;;;2.70;;
4078;SDS011;2054;47.858;11.156;2023-07-28T04:49:22;5.32;;;2.80;;
4078;SDS011;2054;47.858;11.156;2023-07-28T04:51:49;2.90;;;2.60;;
4078;SDS011;2054;47.858;11.156;2023-07-28T04:54:16;4.50;;;3.05;;
4078;SDS011;2054;47.858;11.156;2023-07-28T04:56:43;3.65;;;2.97;;
4078;SDS011;2054;47.858;11.156;2023-07-28T04:59:11;5.68;;;3.05;;
4078;SDS011;2054;47.858;11.156;2023-07-28T05:01:39;6.53;;;2.80;;
4078;SDS011;2054;47.858;11.156;2023-07-28T05:04:07;3.55;;;2.80;;
4078;SDS011;2054;47.858;11.156;2023-07-28T05:06:34;3.85;;;2.70;;
4078;SDS011;2054;47.858;11.156;2023-07-28T05:09:02;4.15;;;3.38;;
4078;SDS011;2054;47.858;11.156;2023-07-28T05:11:29;5.00;;;3.03;;
4078;SDS011;2054;47.858;11.156;2023-07-28T05:13:56;5.35;;;2.85;;
4078;SDS011;2054;47.858;11.156;2023-07-28T05:16:24;4.85;;;2.85;;
4078;SDS011;2054;47.858;11.156;2023-07-28T05:18:51;2.97;;;2.67;;
4078;SDS011;2054;47.858;11.156;2023-07-28T05:21:20;4.00;;;2.60;;
4078;SDS011;2054;47.858;11.156;2023-07-28T05:23:47;5.80;;;2.70;;
4078;SDS011;2054;47.858;11.156;2023-07-28T05:26:14;3.53;;;2.72;;
4078;SDS011;2054;47.858;11.156;2023-07-28T05:28:41;4.35;;;2.95;;
4078;SDS011;2054;47.858;11.156;2023-07-28T05:31:09;6.82;;;2.78;;
4078;SDS011;2054;47.858;11.156;2023-07-28T05:33:38;2.78;;;2.38;;
4078;SDS011;2054;47.858;11.156;2023-07-28T05:36:05;3.38;;;2.90;;
4078;SDS011;2054;47.858;11.156;2023-07-28T05:38:34;4.22;;;2.45;;
4078;SDS011;2054;47.858;11.156;2023-07-28T05:41:02;5.85;;;2.60;;
4078;SDS011;2054;47.858;11.156;2023-07-28T05:43:29;4.00;;;2.72;;
4078;SDS011;2054;47.858;11.156;2023-07-28T05:45:57;3.92;;;2.83;;
4078;SDS011;2054;47.858;11.156;2023-07-28T05:48:24;3.88;;;2.83;;
4078;SDS011;2054;47.858;11.156;2023-07-28T05:50:52;4.13;;;2.90;;
4078;SDS011;2054;47.858;11.156;2023-07-28T05:53:19;3.72;;;3.10;;
4078;SDS011;2054;47.858;11.156;2023-07-28T05:55:48;3.60;;;2.80;;
4078;SDS011;2054;47.858;11.156;2023-07-28T05:58:15;3.55;;;2.58;;
4078;SDS011;2054;47.858;11.156;2023-07-28T06:00:43;3.70;;;2.60;;
4078;SDS011;2054;47.858;11.156;2023-07-28T06:03:10;5.22;;;2.45;;
4078;SDS011;2054;47.858;11.156;2023-07-28T06:05:38;5.45;;;2.70;;
4078;SDS011;2054;47.858;11.156;2023-07-28T06:08:07;8.07;;;2.55;;
4078;SDS011;2054;47.858;11.156;2023-07-28T06:10:34;2.53;;;2.20;;
4078;SDS011;2054;47.858;11.156;2023-07-28T06:13:03;4.95;;;2.60;;
4078;SDS011;2054;47.858;11.156;2023-07-28T06:15:30;3.65;;;2.38;;
4078;SDS011;2054;47.858;11.156;2023-07-28T06:18:00;6.38;;;2.33;;
4078;SDS011;2054;47.858;11.156;2023-07-28T06:20:27;2.85;;;2.33;;
4078;SDS011;2054;47.858;11.156;2023-07-28T06:22:54;3.88;;;2.13;;
4078;SDS011;2054;47.858;11.156;2023-07-28T06:25:22;3.47;;;2.13;;
4078;SDS011;2054;47.858;11.156;2023-07-28T06:27:49;2.33;;;2.00;;
4078;SDS011;2054;47.858;11.156;2023-07-28T06:30:18;6.15;;;2.38;;
4078;SDS011;2054;47.858;11.156;2023-07-28T06:32:45;2.10;;;1.90;;
4078;SDS011;2054;47.858;11.156;2023-07-28T06:35:13;3.63;;;2.22;;
4078;SDS011;2054;47.858;11.156;2023-07-28T06:37:40;2.38;;;1.95;;
4078;SDS011;2054;47.858;11.156;2023-07-28T06:40:07;3.13;;;2.35;;
4078;SDS011;2054;47.858;11.156;2023-07-28T06:42:35;2.63;;;2.40;;
4078;SDS011;2054;47.858;11.156;2023-07-28T06:45:03;2.78;;;2.30;;
4078;SDS011;2054;47.858;11.156;2023-07-28T06:47:31;2.75;;;2.10;;
4078;SDS011;2054;47.858;11.156;2023-07-28T06:49:59;3.42;;;2.10;;
4078;SDS011;2054;47.858;11.156;2023-07-28T06:52:26;2.35;;;2.15;;
4078;SDS011;2054;47.858;11.156;2023-07-28T06:54:53;2.55;;;2.13;;
4078;SDS011;2054;47.858;11.156;2023-07-28T06:57:21;2.72;;;2.38;;
4078;SDS011;2054;47.858;11.156;2023-07-28T06:59:48;4.68;;;2.20;;
4078;SDS011;2054;47.858;11.156;2023-07-28T07:02:15;2.72;;;2.28;;
4078;SDS011;2054;47.858;11.156;2023-07-28T07:04:44;2.65;;;2.30;;
4078;SDS011;2054;47.858;11.156;2023-07-28T07:07:11;4.20;;;2.40;;
4078;SDS011;2054;47.858;11.156;2023-07-28T07:09:38;3.50;;;2.40;;
4078;SDS011;2054;47.858;11.156;2023-07-28T07:12:07;4.50;;;2.20;;
4078;SDS011;2054;47.858;11.156;2023-07-28T07:14:34;2.40;;;2.10;;
4078;SDS011;2054;47.858;11.156;2023-07-28T07:17:02;3.28;;;2.38;;
4078;SDS011;2054;47.858;11.156;2023-07-28T07:19:29;2.80;;;2.42;;
4078;SDS011;2054;47.858;11.156;2023-07-28T07:21:58;2.42;;;2.22;;
4078;SDS011;2054;47.858;11.156;2023-07-28T07:24:25;2.97;;;2.30;;
4078;SDS011;2054;47.858;11.156;2023-07-28T07:26:53;4.32;;;2.50;;
4078;SDS011;2054;47.858;11.156;2023-07-28T07:29:20;2.58;;;2.25;;
4078;SDS011;2054;47.858;11.156;2023-07-28T07:31:47;2.55;;;2.22;;
4078;SDS011;2054;47.858;11.156;2023-07-28T07:34:19;3.65;;;2.17;;
4078;SDS011;2054;47.858;11.156;2023-07-28T07:36:46;2.33;;;2.10;;
4078;SDS011;2054;47.858;11.156;2023-07-28T07:39:15;4.32;;;2.10;;
4078;SDS011;2054;47.858;11.156;2023-07-28T07:41:42;8.63;;;3.25;;
4078;SDS011;2054;47.858;11.156;2023-07-28T07:44:10;3.33;;;2.35;;
4078;SDS011;2054;47.858;11.156;2023-07-28T07:46:37;3.08;;;2.00;;
4078;SDS011;2054;47.858;11.156;2023-07-28T07:49:04;2.38;;;2.05;;
4078;SDS011;2054;47.858;11.156;2023-07-28T07:51:31;3.45;;;2.35;;
4078;SDS011;2054;47.858;11.156;2023-07-28T07:53:59;3.38;;;2.35;;
4078;SDS011;2054;47.858;11.156;2023-07-28T07:56:28;5.03;;;2.40;;
4078;SDS011;2054;47.858;11.156;2023-07-28T07:58:56;3.47;;;1.90;;
4078;SDS011;2054;47.858;11.156;2023-07-28T08:01:23;4.80;;;2.17;;
4078;SDS011;2054;47.858;11.156;2023-07-28T08:03:50;2.38;;;2.17;;
4078;SDS011;2054;47.858;11.156;2023-07-28T08:06:17;4.22;;;2.20;;
4078;SDS011;2054;47.858;11.156;2023-07-28T08:08:45;2.10;;;1.90;;
4078;SDS011;2054;47.858;11.156;2023-07-28T08:11:12;2.00;;;1.90;;
4078;SDS011;2054;47.858;11.156;2023-07-28T08:13:41;4.85;;;2.30;;
4078;SDS011;2054;47.858;11.156;2023-07-28T08:16:08;2.80;;;2.47;;
4078;SDS011;2054;47.858;11.156;2023-07-28T08:18:36;2.65;;;1.75;;
4078;SDS011;2054;47.858;11.156;2023-07-28T08:21:03;2.30;;;2.00;;
4078;SDS011;2054;47.858;11.156;2023-07-28T08:23:30;4.07;;;2.10;;
4078;SDS011;2054;47.858;11.156;2023-07-28T08:25:57;3.78;;;2.40;;
4078;SDS011;2054;47.858;11.156;2023-07-28T08:28:24;2.88;;;2.40;;
4078;SDS011;2054;47.858;11.156;2023-07-28T08:30:56;2.97;;;2.30;;
4078;SDS011;2054;47.858;11.156;2023-07-28T08:33:24;2.50;;;2.28;;
4078;SDS011;2054;47.858;11.156;2023-07-28T08:35:52;2.40;;;2.20;;
4078;SDS011;2054;47.858;11.156;2023-07-28T08:38:19;2.00;;;1.90;;
4078;SDS011;2054;47.858;11.156;2023-07-28T08:40:46;2.20;;;2.03;;
4078;SDS011;2054;47.858;11.156;2023-07-28T08:43:14;3.47;;;2.50;;
4078;SDS011;2054;47.858;11.156;2023-07-28T08:45:41;3.30;;;2.47;;
4078;SDS011;2054;47.858;11.156;2023-07-28T08:48:11;3.38;;;2.60;;
4078;SDS011;2054;47.858;11.156;2023-07-28T08:50:38;3.28;;;2.78;;
4078;SDS011;2054;47.858;11.156;2023-07-28T08:53:06;2.55;;;2.35;;
4078;SDS011;2054;47.858;11.156;2023-07-28T08:55:33;2.80;;;2.13;;
4078;SDS011;2054;47.858;11.156;2023-07-28T08:58:13;4.03;;;2.58;;
4078;SDS011;2054;47.858;11.156;2023-07-28T09:00:41;4.22;;;3.10;;
4078;SDS011;2054;47.858;11.156;2023-07-28T09:03:10;4.15;;;3.50;;
4078;SDS011;2054;47.858;11.156;2023-07-28T09:05:38;3.13;;;2.50;;
4078;SDS011;2054;47.858;11.156;2023-07-28T09:08:06;3.65;;;2.70;;
4078;SDS011;2054;47.858;11.156;2023-07-28T09:10:40;3.10;;;2.47;;
4078;SDS011;2054;47.858;11.156;2023-07-28T09:13:08;3.42;;;2.70;;
4078;SDS011;2054;47.858;11.156;2023-07-28T09:15:36;3.22;;;2.60;;
4078;SDS011;2054;47.858;11.156;2023-07-28T09:18:03;2.97;;;2.42;;
4078;SDS011;2054;47.858;11.156;2023-07-28T09:20:35;3.70;;;2.53;;
4078;SDS011;2054;47.858;11.156;2023-07-28T09:23:02;2.90;;;2.40;;
4078;SDS011;2054;47.858;11.156;2023-07-28T09:25:30;2.60;;;2.40;;
4078;SDS011;2054;47.858;11.156;2023-07-28T09:27:58;3.08;;;2.65;;
4078;SDS011;2054;47.858;11.156;2023-07-28T09:30:26;3.50;;;2.33;;
4078;SDS011;2054;47.858;11.156;2023-07-28T09:32:53;4.18;;;2.60;;
4078;SDS011;2054;47.858;11.156;2023-07-28T09:35:21;2.53;;;2.33;;
4078;SDS011;2054;47.858;11.156;2023-07-28T09:37:50;2.65;;;2.45;;
4078;SDS011;2054;47.858;11.156;2023-07-28T09:40:20;4.15;;;2.38;;
4078;SDS011;2054;47.858;11.156;2023-07-28T09:42:48;2.50;;;2.30;;
4078;SDS011;2054;47.858;11.156;2023-07-28T09:45:15;2.53;;;2.28;;
4078;SDS011;2054;47.858;11.156;2023-07-28T09:47:43;3.67;;;2.60;;
4078;SDS011;2054;47.858;11.156;2023-07-28T09:50:12;2.88;;;2.67;;
4078;SDS011;2054;47.858;11.156;2023-07-28T09:52:42;3.60;;;2.67;;
4078;SDS011;2054;47.858;11.156;2023-07-28T09:55:11;2.53;;;2.33;;
4078;SDS011;2054;47.858;11.156;2023-07-28T09:57:43;2.75;;;2.53;;
4078;SDS011;2054;47.858;11.156;2023-07-28T10:00:12;3.85;;;2.55;;
4078;SDS011;2054;47.858;11.156;2023-07-28T10:02:40;2.72;;;2.50;;
4078;SDS011;2054;47.858;11.156;2023-07-28T10:05:08;2.92;;;2.38;;
4078;SDS011;2054;47.858;11.156;2023-07-28T10:07:36;3.22;;;2.42;;
4078;SDS011;2054;47.858;11.156;2023-07-28T10:10:04;3.45;;;2.67;;
4078;SDS011;2054;47.858;11.156;2023-07-28T10:12:40;7.40;;;2.78;;
4078;SDS011;2054;47.858;11.156;2023-07-28T10:15:11;3.00;;;2.70;;
4078;SDS011;2054;47.858;11.156;2023-07-28T10:17:43;3.00;;;2.60;;
4078;SDS011;2054;47.858;11.156;2023-07-28T10:23:06;3.05;;;2.50;;
4078;SDS011;2054;47.858;11.156;2023-07-28T10:25:34;4.05;;;2.60;;
4078;SDS011;2054;47.858;11.156;2023-07-28T10:28:04;2.80;;;2.60;;
4078;SDS011;2054;47.858;11.156;2023-07-28T10:30:36;2.60;;;2.40;;
4078;SDS011;2054;47.858;11.156;2023-07-28T10:33:04;3.58;;;2.40;;
4078;SDS011;2054;47.858;11.156;2023-07-28T10:35:31;3.42;;;2.63;;
4078;SDS011;2054;47.858;11.156;2023-07-28T10:40:44;3.28;;;2.75;;
4078;SDS011;2054;47.858;11.156;2023-07-28T10:43:13;4.35;;;3.15;;
4078;SDS011;2054;47.858;11.156;2023-07-28T10:45:40;2.92;;;2.60;;
4078;SDS011;2054;47.858;11.156;2023-07-28T10:48:07;5.72;;;2.95;;
4078;SDS011;2054;47.858;11.156;2023-07-28T10:50:34;4.10;;;2.35;;
4078;SDS011;2054;47.858;11.156;2023-07-28T10:53:01;3.42;;;2.58;;
4078;SDS011;2054;47.858;11.156;2023-07-28T10:55:29;3.63;;;2.80;;
4078;SDS011;2054;47.858;11.156;2023-07-28T10:57:57;3.25;;;2.63;;
4078;SDS011;2054;47.858;11.156;2023-07-28T11:00:25;3.20;;;2.78;;
4078;SDS011;2054;47.858;11.156;2023-07-28T11:02:54;3.10;;;2.38;;
4078;SDS011;2054;47.858;11.156;2023-07-28T11:05:22;4.38;;;2.58;;
4078;SDS011;2054;47.858;11.156;2023-07-28T11:07:51;2.72;;;2.50;;
4078;SDS011;2054;47.858;11.156;2023-07-28T11:10:18;3.25;;;2.67;;
4078;SDS011;2054;47.858;11.156;2023-07-28T11:12:46;7.07;;;2.80;;
4078;SDS011;2054;47.858;11.156;2023-07-28T11:15:15;3.40;;;2.55;;
4078;SDS011;2054;47.858;11.156;2023-07-28T11:17:44;2.90;;;2.60;;
4078;SDS011;2054;47.858;11.156;2023-07-28T11:20:15;4.32;;;3.65;;
4078;SDS011;2054;47.858;11.156;2023-07-28T11:22:42;3.33;;;2.85;;
4078;SDS011;2054;47.858;11.156;2023-07-28T11:25:10;5.30;;;2.70;;
4078;SDS011;2054;47.858;11.156;2023-07-28T11:27:37;3.05;;;2.75;;
4078;SDS011;2054;47.858;11.156;2023-07-28T11:30:06;4.13;;;3.03;;
4078;SDS011;2054;47.858;11.156;2023-07-28T11:32:35;3.22;;;2.80;;
4078;SDS011;2054;47.858;11.156;2023-07-28T11:35:05;3.45;;;2.95;;
4078;SDS011;2054;47.858;11.156;2023-07-28T11:37:32;4.68;;;3.30;;
4078;SDS011;2054;47.858;11.156;2023-07-28T11:40:00;6.28;;;2.83;;
4078;SDS011;2054;47.858;11.156;2023-07-28T11:42:32;3.40;;;3.03;;
4078;SDS011;2054;47.858;11.156;2023-07-28T11:44:59;3.40;;;3.00;;
4078;SDS011;2054;47.858;11.156;2023-07-28T11:47:27;3.42;;;3.13;;
4078;SDS011;2054;47.858;11.156;2023-07-28T11:49:55;4.97;;;2.95;;
4078;SDS011;2054;47.858;11.156;2023-07-28T11:52:24;5.70;;;2.78;;
4078;SDS011;2054;47.858;11.156;2023-07-28T11:54:55;4.30;;;3.13;;
4078;SDS011;2054;47.858;11.156;2023-07-28T11:57:25;3.72;;;2.60;;
4078;SDS011;2054;47.858;11.156;2023-07-28T11:59:53;3.50;;;3.15;;
4078;SDS011;2054;47.858;11.156;2023-07-28T12:02:24;3.83;;;3.05;;
4078;SDS011;2054;47.858;11.156;2023-07-28T12:04:51;3.95;;;3.30;;
4078;SDS011;2054;47.858;11.156;2023-07-28T12:07:20;3.40;;;3.10;;
4078;SDS011;2054;47.858;11.156;2023-07-28T12:09:55;2.95;;;2.75;;
4078;SDS011;2054;47.858;11.156;2023-07-28T12:12:25;4.03;;;3.30;;
4078;SDS011;2054;47.858;11.156;2023-07-28T12:14:54;3.20;;;2.90;;
4078;SDS011;2054;47.858;11.156;2023-07-28T12:17:22;4.85;;;3.30;;
4078;SDS011;2054;47.858;11.156;2023-07-28T12:20:00;4.13;;;3.20;;
4078;SDS011;2054;47.858;11.156;2023-07-28T12:22:31;3.28;;;2.97;;
4078;SDS011;2054;47.858;11.156;2023-07-28T12:25:00;3.22;;;2.80;;
4078;SDS011;2054;47.858;11.156;2023-07-28T12:27:27;3.30;;;2.90;;
4078;SDS011;2054;47.858;11.156;2023-07-28T12:29:54;3.78;;;2.75;;
4078;SDS011;2054;47.858;11.156;2023-07-28T12:32:21;5.95;;;3.60;;
4078;SDS011;2054;47.858;11.156;2023-07-28T12:34:49;4.60;;;2.97;;
4078;SDS011;2054;47.858;11.156;2023-07-28T12:37:17;2.97;;;2.65;;
4078;SDS011;2054;47.858;11.156;2023-07-28T12:39:44;3.80;;;2.92;;
4078;SDS011;2054;47.858;11.156;2023-07-28T12:42:12;4.05;;;3.25;;
4078;SDS011;2054;47.858;11.156;2023-07-28T12:44:41;3.42;;;3.10;;
4078;SDS011;2054;47.858;11.156;2023-07-28T12:47:08;4.32;;;2.90;;
4078;SDS011;2054;47.858;11.156;2023-07-28T12:49:35;3.25;;;2.90;;
4078;SDS011;2054;47.858;11.156;2023-07-28T12:52:04;3.55;;;2.85;;
4078;SDS011;2054;47.858;11.156;2023-07-28T12:54:33;3.85;;;3.08;;
4078;SDS011;2054;47.858;11.156;2023-07-28T12:57:00;5.65;;;3.05;;
4078;SDS011;2054;47.858;11.156;2023-07-28T12:59:29;3.38;;;2.80;;
4078;SDS011;2054;47.858;11.156;2023-07-28T13:01:56;3.90;;;2.95;;
4078;SDS011;2054;47.858;11.156;2023-07-28T13:04:23;3.47;;;2.72;;
4078;SDS011;2054;47.858;11.156;2023-07-28T13:06:51;4.53;;;3.33;;
4078;SDS011;2054;47.858;11.156;2023-07-28T13:09:18;3.38;;;3.10;;
4078;SDS011;2054;47.858;11.156;2023-07-28T13:11:45;3.20;;;2.70;;
4078;SDS011;2054;47.858;11.156;2023-07-28T13:14:12;4.00;;;3.00;;
4078;SDS011;2054;47.858;11.156;2023-07-28T13:16:41;3.65;;;2.85;;
4078;SDS011;2054;47.858;11.156;2023-07-28T13:19:09;4.72;;;2.80;;
4078;SDS011;2054;47.858;11.156;2023-07-28T13:21:36;4.78;;;3.17;;
4078;SDS011;2054;47.858;11.156;2023-07-28T13:24:04;4.07;;;3.00;;
4078;SDS011;2054;47.858;11.156;2023-07-28T13:26:31;3.33;;;3.00;;
4078;SDS011;2054;47.858;11.156;2023-07-28T13:28:58;3.17;;;2.88;;
4078;SDS011;2054;47.858;11.156;2023-07-28T13:31:26;4.20;;;3.30;;
4078;SDS011;2054;47.858;11.156;2023-07-28T13:33:55;4.68;;;3.28;;
4078;SDS011;2054;47.858;11.156;2023-07-28T13:36:22;3.50;;;2.70;;
4078;SDS011;2054;47.858;11.156;2023-07-28T13:38:49;4.80;;;2.95;;
4078;SDS011;2054;47.858;11.156;2023-07-28T13:41:17;5.20;;;2.97;;
4078;SDS011;2054;47.858;11.156;2023-07-28T13:43:44;3.22;;;2.88;;
4078;SDS011;2054;47.858;11.156;2023-07-28T13:46:11;4.47;;;2.85;;
4078;SDS011;2054;47.858;11.156;2023-07-28T13:48:39;2.92;;;2.58;;
4078;SDS011;2054;47.858;11.156;2023-07-28T13:51:07;3.95;;;3.00;;
4078;SDS011;2054;47.858;11.156;2023-07-28T13:53:34;3.28;;;2.88;;
4078;SDS011;2054;47.858;11.156;2023-07-28T13:56:02;4.03;;;2.88;;
4078;SDS011;2054;47.858;11.156;2023-07-28T13:58:29;3.33;;;2.92;;
4078;SDS011;2054;47.858;11.156;2023-07-28T14:00:56;4.57;;;3.22;;
4078;SDS011;2054;47.858;11.156;2023-07-28T14:03:24;3.33;;;2.90;;
4078;SDS011;2054;47.858;11.156;2023-07-28T14:05:51;3.92;;;2.97;;
4078;SDS011;2054;47.858;11.156;2023-07-28T14:08:20;2.95;;;2.70;;
4078;SDS011;2054;47.858;11.156;2023-07-28T14:10:47;3.35;;;3.05;;
4078;SDS011;2054;47.858;11.156;2023-07-28T14:13:14;4.40;;;2.88;;
4078;SDS011;2054;47.858;11.156;2023-07-28T14:15:41;3.95;;;2.88;;
4078;SDS011;2054;47.858;11.156;2023-07-28T14:18:09;4.97;;;2.70;;
4078;SDS011;2054;47.858;11.156;2023-07-28T14:20:36;3.20;;;2.90;;
4078;SDS011;2054;47.858;11.156;2023-07-28T14:23:08;3.47;;;2.80;;
4078;SDS011;2054;47.858;11.156;2023-07-28T14:25:48;4.50;;;3.47;;
4078;SDS011;2054;47.858;11.156;2023-07-28T14:28:15;5.43;;;3.10;;
4078;SDS011;2054;47.858;11.156;2023-07-28T14:30:42;4.82;;;3.13;;
4078;SDS011;2054;47.858;11.156;2023-07-28T14:33:11;5.32;;;3.13;;
4078;SDS011;2054;47.858;11.156;2023-07-28T14:35:38;4.25;;;3.20;;
4078;SDS011;2054;47.858;11.156;2023-07-28T14:38:05;4.72;;;3.03;;
4078;SDS011;2054;47.858;11.156;2023-07-28T14:40:33;4.28;;;3.20;;
4078;SDS011;2054;47.858;11.156;2023-07-28T14:43:02;5.30;;;3.35;;
4078;SDS011;2054;47.858;11.156;2023-07-28T14:45:29;4.43;;;3.20;;
4078;SDS011;2054;47.858;11.156;2023-07-28T14:47:57;3.95;;;2.88;;
4078;SDS011;2054;47.858;11.156;2023-07-28T14:50:25;3.60;;;3.30;;
4078;SDS011;2054;47.858;11.156;2023-07-28T14:52:53;4.18;;;3.13;;
4078;SDS011;2054;47.858;11.156;2023-07-28T14:55:20;3.55;;;3.22;;
4078;SDS011;2054;47.858;11.156;2023-07-28T14:57:47;4.10;;;3.13;;
4078;SDS011;2054;47.858;11.156;2023-07-28T15:00:16;3.47;;;3.17;;
4078;SDS011;2054;47.858;11.156;2023-07-28T15:02:43;4.13;;;3.20;;
4078;SDS011;2054;47.858;11.156;2023-07-28T15:05:11;4.35;;;3.50;;
4078;SDS011;2054;47.858;11.156;2023-07-28T15:07:38;3.72;;;3.40;;
4078;SDS011;2054;47.858;11.156;2023-07-28T15:10:05;3.65;;;3.35;;
4078;SDS011;2054;47.858;11.156;2023-07-28T15:12:33;3.58;;;3.28;;
4078;SDS011;2054;47.858;11.156;2023-07-28T15:15:00;4.80;;;3.47;;
4078;SDS011;2054;47.858;11.156;2023-07-28T15:17:29;3.75;;;3.45;;
4078;SDS011;2054;47.858;11.156;2023-07-28T15:19:56;5.13;;;4.50;;
4078;SDS011;2054;47.858;11.156;2023-07-28T15:22:23;9.75;;;9.02;;
4078;SDS011;2054;47.858;11.156;2023-07-28T15:24:51;18.83;;;17.42;;
4078;SDS011;2054;47.858;11.156;2023-07-28T15:27:18;34.83;;;32.50;;
4078;SDS011;2054;47.858;11.156;2023-07-28T15:29:45;15.45;;;14.18;;
4078;SDS011;2054;47.858;11.156;2023-07-28T15:32:13;3.67;;;3.38;;
4078;SDS011;2054;47.858;11.156;2023-07-28T15:34:41;3.45;;;3.15;;
4078;SDS011;2054;47.858;11.156;2023-07-28T15:37:09;4.22;;;3.13;;
4078;SDS011;2054;47.858;11.156;2023-07-28T15:39:36;8.68;;;7.97;;
4078;SDS011;2054;47.858;11.156;2023-07-28T15:42:04;15.40;;;14.20;;
4078;SDS011;2054;47.858;11.156;2023-07-28T15:44:31;4.18;;;3.80;;
4078;SDS011;2054;47.858;11.156;2023-07-28T15:46:58;17.33;;;16.15;;
4078;SDS011;2054;47.858;11.156;2023-07-28T15:49:25;15.38;;;14.38;;
4078;SDS011;2054;47.858;11.156;2023-07-28T15:51:54;10.05;;;9.32;;
4078;SDS011;2054;47.858;11.156;2023-07-28T15:54:22;4.72;;;3.50;;
4078;SDS011;2054;47.858;11.156;2023-07-28T15:56:49;3.83;;;3.50;;
4078;SDS011;2054;47.858;11.156;2023-07-28T15:59:16;3.75;;;3.45;;
4078;SDS011;2054;47.858;11.156;2023-07-28T16:01:43;4.18;;;3.78;;
4078;SDS011;2054;47.858;11.156;2023-07-28T16:04:11;4.00;;;3.70;;
4078;SDS011;2054;47.858;11.156;2023-07-28T16:06:38;4.25;;;3.85;;
4078;SDS011;2054;47.858;11.156;2023-07-28T16:09:06;3.65;;;3.35;;
4078;SDS011;2054;47.858;11.156;2023-07-28T16:11:33;4.75;;;4.20;;
4078;SDS011;2054;47.858;11.156;2023-07-28T16:14:01;8.85;;;7.28;;
4078;SDS011;2054;47.858;11.156;2023-07-28T16:16:28;6.70;;;6.05;;
4078;SDS011;2054;47.858;11.156;2023-07-28T16:18:56;4.47;;;4.07;;
4078;SDS011;2054;47.858;11.156;2023-07-28T16:21:24;5.32;;;3.85;;
4078;SDS011;2054;47.858;11.156;2023-07-28T16:23:51;9.45;;;5.85;;
4078;SDS011;2054;47.858;11.156;2023-07-28T16:26:20;4.30;;;3.90;;
4078;SDS011;2054;47.858;11.156;2023-07-28T16:28:47;3.90;;;3.60;;
4078;SDS011;2054;47.858;11.156;2023-07-28T16:31:14;3.80;;;3.47;;
4078;SDS011;2054;47.858;11.156;2023-07-28T16:33:42;4.82;;;3.90;;
4078;SDS011;2054;47.858;11.156;2023-07-28T16:36:09;4.32;;;3.92;;
4078;SDS011;2054;47.858;11.156;2023-07-28T16:38:36;5.25;;;4.60;;
4078;SDS011;2054;47.858;11.156;2023-07-28T16:41:04;5.00;;;3.72;;
4078;SDS011;2054;47.858;11.156;2023-07-28T16:43:32;4.30;;;3.90;;
4078;SDS011;2054;47.858;11.156;2023-07-28T16:46:00;5.47;;;4.10;;
4078;SDS011;2054;47.858;11.156;2023-07-28T16:48:27;6.88;;;4.07;;
4078;SDS011;2054;47.858;11.156;2023-07-28T16:50:54;3.97;;;3.55;;
4078;SDS011;2054;47.858;11.156;2023-07-28T16:53:22;4.85;;;4.30;;
4078;SDS011;2054;47.858;11.156;2023-07-28T16:55:49;6.60;;;5.47;;
4078;SDS011;2054;47.858;11.156;2023-07-28T16:58:16;4.22;;;3.80;;
4078;SDS011;2054;47.858;11.156;2023-07-28T17:00:45;4.70;;;4.20;;
4078;SDS011;2054;47.858;11.156;2023-07-28T17:03:12;4.82;;;3.88;;
4078;SDS011;2054;47.858;11.156;2023-07-28T17:05:39;5.63;;;4.38;;
4078;SDS011;2054;47.858;11.156;2023-07-28T17:08:07;5.32;;;4.40;;
4078;SDS011;2054;47.858;11.156;2023-07-28T17:10:34;5.65;;;4.30;;
4078;SDS011;2054;47.858;11.156;2023-07-28T17:13:02;7.07;;;4.40;;
4078;SDS011;2054;47.858;11.156;2023-07-28T17:15:28;4.13;;;3.55;;
4078;SDS011;2054;47.858;11.156;2023-07-28T17:17:59;4.10;;;3.55;;
4078;SDS011;2054;47.858;11.156;2023-07-28T17:20:26;5.50;;;3.63;;
4078;SDS011;2054;47.858;11.156;2023-07-28T17:22:52;5.90;;;3.70;;
4078;SDS011;2054;47.858;11.156;2023-07-28T17:25:20;3.47;;;3.17;;
4078;SDS011;2054;47.858;11.156;2023-07-28T17:27:47;6.63;;;3.40;;
4078;SDS011;2054;47.858;11.156;2023-07-28T17:30:14;4.65;;;3.50;;
4078;SDS011;2054;47.858;11.156;2023-07-28T17:32:41;3.97;;;3.58;;
4078;SDS011;2054;47.858;11.156;2023-07-28T17:35:11;5.25;;;3.38;;
4078;SDS011;2054;47.858;11.156;2023-07-28T17:37:38;5.35;;;3.60;;
4078;SDS011;2054;47.858;11.156;2023-07-28T17:40:05;4.75;;;4.25;;
4078;SDS011;2054;47.858;11.156;2023-07-28T17:42:33;3.75;;;3.40;;
4078;SDS011;2054;47.858;11.156;2023-07-28T17:45:00;4.80;;;3.80;;
4078;SDS011;2054;47.858;11.156;2023-07-28T17:47:31;5.60;;;3.72;;
4078;SDS011;2054;47.858;11.156;2023-07-28T17:49:59;4.13;;;3.70;;
4078;SDS011;2054;47.858;11.156;2023-07-28T17:52:27;8.77;;;4.28;;
4078;SDS011;2054;47.858;11.156;2023-07-28T17:54:54;5.97;;;3.60;;